Zoutleeuw, Belgium
Current Conditions -  °F | °C
As of 7:06 AM on Monday 26 Jan 2015 (Local Time) from EBDT Reporting Station
Haze Haze  
Wind Chill: 32°   Ceiling: 300
Heat Index: 37°   Visibility: 1.2mi
Dew Point: 37°   Wind: 7mph
Humidity: 100%   Direction: 190°S
Pressure: 30.18"   Gusts: NA
Location:  50.83°N, 5.1°E
Report Text: EBDT 260606Z 19006KT 2000 BR SCT001 BKN003 03/03 Q1022 RED AMB TEMPO RED
Loading
Personal Weather Stations






























Interactive Weather Map New forecast layout! Learn more

10-Day Weather Forecast

Advertisements
Track Severe Weather on mobile